< < Back
Terminal Aerodrome Forecast


Current Version              Previous Versions:   1  2  3  4  5  6  7  8  9  

Terminal Aerodrome Forecast

766
FTUS42 KMLB 291800 AAA
TAFDAB
TAF AMD
KDAB 291800Z 2918/3018 05012KT P6SM VCSH SCT045 SCT060 BKN250
     FM300200 00000KT P6SM FEW025 SCT250
     FM301300 27008KT P6SM SCT020=



Latest METAR

457
SAUS80 KWBC 301000 RRA
MTRDAB
METAR KDAB 300953Z 20003KT 8SM SCT150 SCT250 21/21 A2999 RMK AO2 SLP155
T02060206


USA.gov is the U.S. government's official web portal to all federal, state and local government web resources and services.